AirNav   Everest Fuels
 
 464 users online  

2NH5 Pilgrim's Home Airfield
Westmoreland, New Hampshire, USA

GOING TO WESTMORELAND?


FAA INFORMATION EFFECTIVE 10 SEPTEMBER 2020

Location

FAA Identifier: 2NH5
Lat/Long: 42-59-25.0000N 072-24-06.0000W
42-59.416667N 072-24.100000W
42.9902778,-72.4016667
(estimated)
Elevation: 600 ft. / 183 m (estimated)
Variation: 15W (2000)
From city: 3 miles NE of WESTMORELAND, NH
Time zone: UTC -4 (UTC -5 during Standard Time)
Zip code: 03467

Airport Operations

Airport use: Private use. Permission required prior to landing
Activation date: 01/2003
Control tower: no
ARTCC: BOSTON CENTER
FSS: BANGOR FLIGHT SERVICE STATION
Attendance: UNATNDD
Segmented circle: no

Airport Communications

WX AWOS-3PT at EEN (8 nm SE): 119.025 (603-358-6424)

Nearby radio navigation aids

VOR radial/distance  VOR name  Freq  Var
EENr352/12.7KEENE VORTAC109.4014W
GDMr344/30.7GARDNER VOR/DME110.6014W
CONr264/38.7CONCORD VOR/DME112.9015W

 
NDB name  Hdg/Dist  Freq  Var  ID
CLAREMONT199/22.823316WCNH -.-. -. ....

Airport Services

Runway Information

Runway 17/35

Dimensions: 1200 x 40 ft. / 366 x 12 m
Surface: turf
RUNWAY 17  RUNWAY 35
Traffic pattern: leftleft
Displaced threshold: no300 ft.
Obstructions: 75 ft. trees50 ft. pline

Runway 1/19

Dimensions: 800 x 30 ft. / 244 x 9 m
Surface: turf
RUNWAY 1  RUNWAY 19
Traffic pattern: leftright
Obstructions: 35 ft. bldg15 ft. bldg

Airport Ownership and Management from official FAA records

Ownership: Privately-owned
Owner: WILLIAM FLETCHER
92 THOMPSON ROAD
WESTMORELAND, NH 03467
Phone 603-313-9396
Manager: WILLIAM FLETCHER
92 THOMPSON ROAD
WESTMORELAND, NH
Phone 603-313-9396

Airport Operational Statistics

Aircraft based on the field: 1
Single engine airplanes: 1
    

Additional Remarks

FOR CD CTC BOSTON ARTCC AT 603-879-6859.

Instrument Procedures

There are no published instrument procedures at 2NH5.

Some nearby airports with instrument procedures:

KEEN - Dillant-Hopkins Airport (8 nm SE)
4V8 - Deerfield Valley Regional Airport (21 nm W)
KAFN - Jaffrey Airport-Silver Ranch (21 nm SE)
KVSF - Hartness State Airport (Springfield) (22 nm N)
KCNH - Claremont Municipal Airport (23 nm N)
 
Loc | Ops | Rwys | IFR | FBO | Links
Com | Nav | Svcs | Stats | Notes
Area around 2NH5 (Pilgrim's Home Airfield)
 
Road maps at: MapQuest Bing Google
 
Aerial photo
WARNING: Photo may not be current or correct
Aerial photo of 2NH5 (Pilgrim's Home Airfield)
Do you have a better or more recent aerial photo of Pilgrim's Home Airfield that you would like to share? If so, please send us your photo.

 
Sectional chart

 
Airport distance calculator
Flying to Pilgrim's Home Airfield? Find the distance to fly.

From to 2NH5

Sunrise and sunset
Times for 18-Sep-2020
 Local
(UTC-4)
 Zulu
(UTC)
Morning civil twilight06:0610:06
Sunrise06:3510:35
Sunset18:5222:52
Evening civil twilight19:2123:21

Current date and time
Zulu (UTC)  18-Sep-2020 06:40:47
Local (UTC-4)  18-Sep-2020 02:40:47
 
METAR
KEEN 
9nm SE 
180556Z AUTO 36006KT 10SM OVC033 14/11 A3002 RMK AO2 SLP169 6//// T01440111 10156 20144 57005 PNO $
TAF
KLEB 
39nm N 
180534Z 1806/1906 VRB03KT P6SM OVC040 FM181500 36009G16KT P6SM BKN040 FM182300 35003KT P6SM SKC
KRUT 
40nm NW 
180540Z 1806/1906 VRB03KT P6SM BKN008 OVC040 FM180900 VRB06KT P6SM SCT060 FM181400 36007KT P6SM FEW180 FM181700 34010KT P6SM FEW200 FM190200 VRB04KT P6SM SKC
KCON 
41nm E 
180534Z 1806/1906 VRB04KT P6SM -SHRA OVC035 FM181100 35006KT P6SM OVC025 FM181500 34010G17KT P6SM BKN040 FM182300 33005KT P6SM SKC
KMHT 
43nm E 
180534Z 1806/1906 01008KT P6SM OVC035 FM181400 36010G17KT P6SM BKN040 FM182300 34007KT P6SM SKC
KCEF 
48nm S 
172100Z 1721/1903 23010KT 9999 SCT050 BKN250 QNH2995INS BECMG 1723/1724 36012KT 9999 SCT025 SCT080 QNH2998INS TEMPO 1807/1812 -SHRA OVC020 BECMG 1816/1817 01012G18KT 9999 BKN035 BKN250 QNH3000INS BECMG 1820/1821 01012G18KT 9999 SCT050 SCT250 QNH3000INS TX24/1721Z TN13/1812Z LAST NO AMDS AFT 1803 NEXT 1813
NOTAMs
Click for the latest NOTAMs
NOTAMs are issued by the DoD/FAA and will open in a separate window not controlled by AirNav.

 

 
 

Would you like to see your business listed on this page?

 If your business provides an interesting product or service to pilots, flight crews, aircraft, or users of the Pilgrim's Home Airfield, you should consider listing it here.  To start the listing process, click on the button below
 
Add a business
 

Other Pages about Pilgrim's Home Airfield

Update a link
 
Copyright © AirNav, LLC. All rights reserved. Privacy Policy  Contact